sensor_id;sensor_type;location;lat;lon;timestamp;P1;durP1;ratioP1;P2;durP2;ratioP2
6197;SDS011;3132;42.622;23.328;2023-03-08T00:01:33;11.23;;;10.53;;
6197;SDS011;3132;42.622;23.328;2023-03-08T00:03:59;12.90;;;11.83;;
6197;SDS011;3132;42.622;23.328;2023-03-08T00:06:25;10.93;;;10.33;;
6197;SDS011;3132;42.622;23.328;2023-03-08T00:08:55;11.33;;;10.33;;
6197;SDS011;3132;42.622;23.328;2023-03-08T00:11:21;11.10;;;10.33;;
6197;SDS011;3132;42.622;23.328;2023-03-08T00:13:47;10.77;;;10.07;;
6197;SDS011;3132;42.622;23.328;2023-03-08T00:16:12;11.33;;;10.63;;
6197;SDS011;3132;42.622;23.328;2023-03-08T00:18:38;10.90;;;10.10;;
6197;SDS011;3132;42.622;23.328;2023-03-08T00:21:08;11.80;;;10.80;;
6197;SDS011;3132;42.622;23.328;2023-03-08T00:23:35;10.30;;;9.60;;
6197;SDS011;3132;42.622;23.328;2023-03-08T00:26:01;11.87;;;10.97;;
6197;SDS011;3132;42.622;23.328;2023-03-08T00:28:27;10.63;;;10.10;;
6197;SDS011;3132;42.622;23.328;2023-03-08T00:31:05;11.43;;;10.63;;
6197;SDS011;3132;42.622;23.328;2023-03-08T00:33:33;12.33;;;11.37;;
6197;SDS011;3132;42.622;23.328;2023-03-08T00:36:00;10.53;;;9.93;;
6197;SDS011;3132;42.622;23.328;2023-03-08T00:38:29;10.80;;;10.13;;
6197;SDS011;3132;42.622;23.328;2023-03-08T00:40:55;10.87;;;10.03;;
6197;SDS011;3132;42.622;23.328;2023-03-08T00:43:21;10.97;;;10.17;;
6197;SDS011;3132;42.622;23.328;2023-03-08T00:45:46;10.80;;;10.30;;
6197;SDS011;3132;42.622;23.328;2023-03-08T00:48:12;11.83;;;11.07;;
6197;SDS011;3132;42.622;23.328;2023-03-08T00:50:38;10.47;;;9.67;;
6197;SDS011;3132;42.622;23.328;2023-03-08T00:53:03;11.87;;;10.70;;
6197;SDS011;3132;42.622;23.328;2023-03-08T00:55:28;11.27;;;10.57;;
6197;SDS011;3132;42.622;23.328;2023-03-08T00:57:54;11.53;;;10.63;;
6197;SDS011;3132;42.622;23.328;2023-03-08T01:00:19;11.13;;;10.43;;
6197;SDS011;3132;42.622;23.328;2023-03-08T01:02:45;11.37;;;10.63;;
6197;SDS011;3132;42.622;23.328;2023-03-08T01:05:10;11.67;;;10.97;;
6197;SDS011;3132;42.622;23.328;2023-03-08T01:07:36;11.77;;;10.97;;
6197;SDS011;3132;42.622;23.328;2023-03-08T01:10:02;12.10;;;11.20;;
6197;SDS011;3132;42.622;23.328;2023-03-08T01:12:30;10.90;;;10.30;;
6197;SDS011;3132;42.622;23.328;2023-03-08T01:14:57;11.70;;;10.87;;
6197;SDS011;3132;42.622;23.328;2023-03-08T01:17:23;11.90;;;11.10;;
6197;SDS011;3132;42.622;23.328;2023-03-08T01:19:48;11.80;;;11.00;;
6197;SDS011;3132;42.622;23.328;2023-03-08T01:22:13;11.77;;;10.83;;
6197;SDS011;3132;42.622;23.328;2023-03-08T01:24:42;11.13;;;10.50;;
6197;SDS011;3132;42.622;23.328;2023-03-08T01:27:11;11.43;;;10.73;;
6197;SDS011;3132;42.622;23.328;2023-03-08T01:29:36;11.27;;;10.57;;
6197;SDS011;3132;42.622;23.328;2023-03-08T01:32:02;10.67;;;10.17;;
6197;SDS011;3132;42.622;23.328;2023-03-08T01:34:27;10.17;;;9.67;;
6197;SDS011;3132;42.622;23.328;2023-03-08T01:36:53;11.13;;;10.23;;
6197;SDS011;3132;42.622;23.328;2023-03-08T01:39:18;10.93;;;10.30;;
6197;SDS011;3132;42.622;23.328;2023-03-08T01:41:43;10.37;;;9.77;;
6197;SDS011;3132;42.622;23.328;2023-03-08T01:44:18;10.57;;;9.80;;
6197;SDS011;3132;42.622;23.328;2023-03-08T01:46:48;11.57;;;10.63;;
6197;SDS011;3132;42.622;23.328;2023-03-08T01:51:46;11.90;;;11.00;;
6197;SDS011;3132;42.622;23.328;2023-03-08T01:54:37;11.87;;;11.00;;
6197;SDS011;3132;42.622;23.328;2023-03-08T01:57:10;11.63;;;10.93;;
6197;SDS011;3132;42.622;23.328;2023-03-08T01:59:42;10.30;;;9.70;;
6197;SDS011;3132;42.622;23.328;2023-03-08T02:02:08;11.00;;;10.30;;
6197;SDS011;3132;42.622;23.328;2023-03-08T02:04:34;10.43;;;9.83;;
6197;SDS011;3132;42.622;23.328;2023-03-08T02:07:01;11.93;;;11.00;;
6197;SDS011;3132;42.622;23.328;2023-03-08T02:09:27;10.57;;;9.93;;
6197;SDS011;3132;42.622;23.328;2023-03-08T02:11:53;11.27;;;10.57;;
6197;SDS011;3132;42.622;23.328;2023-03-08T02:14:23;10.60;;;9.97;;
6197;SDS011;3132;42.622;23.328;2023-03-08T02:16:49;9.70;;;9.20;;
6197;SDS011;3132;42.622;23.328;2023-03-08T02:19:23;12.37;;;11.33;;
6197;SDS011;3132;42.622;23.328;2023-03-08T02:22:11;12.00;;;11.17;;
6197;SDS011;3132;42.622;23.328;2023-03-08T02:24:40;11.63;;;10.77;;
6197;SDS011;3132;42.622;23.328;2023-03-08T02:27:06;11.53;;;10.83;;
6197;SDS011;3132;42.622;23.328;2023-03-08T02:29:37;10.83;;;9.77;;
6197;SDS011;3132;42.622;23.328;2023-03-08T02:32:03;11.87;;;11.07;;
6197;SDS011;3132;42.622;23.328;2023-03-08T02:34:28;11.57;;;10.57;;
6197;SDS011;3132;42.622;23.328;2023-03-08T02:36:54;11.33;;;10.63;;
6197;SDS011;3132;42.622;23.328;2023-03-08T02:39:19;11.73;;;10.93;;
6197;SDS011;3132;42.622;23.328;2023-03-08T02:41:45;10.97;;;10.27;;
6197;SDS011;3132;42.622;23.328;2023-03-08T02:44:10;11.43;;;10.53;;
6197;SDS011;3132;42.622;23.328;2023-03-08T02:46:35;11.43;;;10.67;;
6197;SDS011;3132;42.622;23.328;2023-03-08T02:49:01;11.00;;;10.10;;
6197;SDS011;3132;42.622;23.328;2023-03-08T02:51:26;11.67;;;10.97;;
6197;SDS011;3132;42.622;23.328;2023-03-08T02:53:51;10.47;;;9.80;;
6197;SDS011;3132;42.622;23.328;2023-03-08T02:56:17;11.77;;;10.80;;
6197;SDS011;3132;42.622;23.328;2023-03-08T02:58:42;11.70;;;11.00;;
6197;SDS011;3132;42.622;23.328;2023-03-08T03:01:12;12.23;;;11.53;;
6197;SDS011;3132;42.622;23.328;2023-03-08T03:03:38;12.33;;;11.57;;
6197;SDS011;3132;42.622;23.328;2023-03-08T03:06:03;11.97;;;11.07;;
6197;SDS011;3132;42.622;23.328;2023-03-08T03:08:29;11.50;;;10.60;;
6197;SDS011;3132;42.622;23.328;2023-03-08T03:10:55;12.47;;;11.37;;
6197;SDS011;3132;42.622;23.328;2023-03-08T03:13:21;12.17;;;11.07;;
6197;SDS011;3132;42.622;23.328;2023-03-08T03:15:47;11.13;;;10.43;;
6197;SDS011;3132;42.622;23.328;2023-03-08T03:18:12;12.43;;;11.43;;
6197;SDS011;3132;42.622;23.328;2023-03-08T03:20:37;12.13;;;11.23;;
6197;SDS011;3132;42.622;23.328;2023-03-08T03:23:03;11.93;;;11.23;;
6197;SDS011;3132;42.622;23.328;2023-03-08T03:25:28;12.03;;;11.00;;
6197;SDS011;3132;42.622;23.328;2023-03-08T03:27:54;11.53;;;10.83;;
6197;SDS011;3132;42.622;23.328;2023-03-08T03:30:20;11.13;;;10.40;;
6197;SDS011;3132;42.622;23.328;2023-03-08T03:32:46;12.20;;;11.40;;
6197;SDS011;3132;42.622;23.328;2023-03-08T03:35:11;12.53;;;11.23;;
6197;SDS011;3132;42.622;23.328;2023-03-08T03:37:37;12.57;;;11.67;;
6197;SDS011;3132;42.622;23.328;2023-03-08T03:40:03;13.23;;;12.33;;
6197;SDS011;3132;42.622;23.328;2023-03-08T03:42:29;12.70;;;11.50;;
6197;SDS011;3132;42.622;23.328;2023-03-08T03:44:54;11.50;;;10.67;;
6197;SDS011;3132;42.622;23.328;2023-03-08T03:47:19;12.23;;;11.33;;
6197;SDS011;3132;42.622;23.328;2023-03-08T03:49:45;12.00;;;11.23;;
6197;SDS011;3132;42.622;23.328;2023-03-08T03:52:10;12.40;;;11.43;;
6197;SDS011;3132;42.622;23.328;2023-03-08T03:54:36;11.63;;;10.83;;
6197;SDS011;3132;42.622;23.328;2023-03-08T03:57:01;11.90;;;10.87;;
6197;SDS011;3132;42.622;23.328;2023-03-08T03:59:26;11.73;;;10.60;;
6197;SDS011;3132;42.622;23.328;2023-03-08T04:01:52;11.67;;;10.77;;
6197;SDS011;3132;42.622;23.328;2023-03-08T04:04:18;11.80;;;10.70;;
6197;SDS011;3132;42.622;23.328;2023-03-08T04:06:43;12.63;;;11.63;;
6197;SDS011;3132;42.622;23.328;2023-03-08T04:09:11;12.90;;;11.90;;
6197;SDS011;3132;42.622;23.328;2023-03-08T04:11:39;12.77;;;11.53;;
6197;SDS011;3132;42.622;23.328;2023-03-08T04:14:05;13.43;;;12.23;;
6197;SDS011;3132;42.622;23.328;2023-03-08T04:16:31;13.07;;;11.60;;
6197;SDS011;3132;42.622;23.328;2023-03-08T04:19:06;11.33;;;10.53;;
6197;SDS011;3132;42.622;23.328;2023-03-08T04:21:34;13.43;;;12.50;;
6197;SDS011;3132;42.622;23.328;2023-03-08T04:23:59;12.23;;;11.43;;
6197;SDS011;3132;42.622;23.328;2023-03-08T04:26:25;12.00;;;11.03;;
6197;SDS011;3132;42.622;23.328;2023-03-08T04:28:50;13.00;;;11.87;;
6197;SDS011;3132;42.622;23.328;2023-03-08T04:33:46;12.23;;;11.20;;
6197;SDS011;3132;42.622;23.328;2023-03-08T04:36:12;12.60;;;11.70;;
6197;SDS011;3132;42.622;23.328;2023-03-08T04:38:38;11.70;;;10.90;;
6197;SDS011;3132;42.622;23.328;2023-03-08T04:41:04;11.87;;;10.93;;
6197;SDS011;3132;42.622;23.328;2023-03-08T04:43:34;12.27;;;11.33;;
6197;SDS011;3132;42.622;23.328;2023-03-08T04:46:01;12.10;;;11.33;;
6197;SDS011;3132;42.622;23.328;2023-03-08T04:48:27;12.00;;;11.00;;
6197;SDS011;3132;42.622;23.328;2023-03-08T04:50:53;12.93;;;11.73;;
6197;SDS011;3132;42.622;23.328;2023-03-08T04:53:20;12.93;;;12.00;;
6197;SDS011;3132;42.622;23.328;2023-03-08T04:55:46;13.23;;;12.23;;
6197;SDS011;3132;42.622;23.328;2023-03-08T04:58:11;12.43;;;11.47;;
6197;SDS011;3132;42.622;23.328;2023-03-08T05:00:37;13.97;;;11.50;;
6197;SDS011;3132;42.622;23.328;2023-03-08T05:03:02;14.77;;;12.27;;
6197;SDS011;3132;42.622;23.328;2023-03-08T05:05:27;13.37;;;12.03;;
6197;SDS011;3132;42.622;23.328;2023-03-08T05:07:53;13.53;;;12.53;;
6197;SDS011;3132;42.622;23.328;2023-03-08T05:10:18;13.50;;;12.37;;
6197;SDS011;3132;42.622;23.328;2023-03-08T05:12:44;16.93;;;11.07;;
6197;SDS011;3132;42.622;23.328;2023-03-08T05:15:09;13.07;;;12.07;;
6197;SDS011;3132;42.622;23.328;2023-03-08T05:17:35;15.27;;;13.53;;
6197;SDS011;3132;42.622;23.328;2023-03-08T05:20:00;13.93;;;12.70;;
6197;SDS011;3132;42.622;23.328;2023-03-08T05:22:26;14.83;;;13.30;;
6197;SDS011;3132;42.622;23.328;2023-03-08T05:24:52;15.57;;;13.67;;
6197;SDS011;3132;42.622;23.328;2023-03-08T05:27:17;16.73;;;14.97;;
6197;SDS011;3132;42.622;23.328;2023-03-08T05:29:42;17.77;;;14.33;;
6197;SDS011;3132;42.622;23.328;2023-03-08T05:32:11;17.27;;;14.07;;
6197;SDS011;3132;42.622;23.328;2023-03-08T05:34:37;15.97;;;14.47;;
6197;SDS011;3132;42.622;23.328;2023-03-08T05:37:02;15.27;;;13.70;;
6197;SDS011;3132;42.622;23.328;2023-03-08T05:39:28;13.70;;;12.40;;
6197;SDS011;3132;42.622;23.328;2023-03-08T05:41:54;14.23;;;12.57;;
6197;SDS011;3132;42.622;23.328;2023-03-08T05:44:20;18.37;;;13.57;;
6197;SDS011;3132;42.622;23.328;2023-03-08T05:46:48;14.23;;;12.83;;
6197;SDS011;3132;42.622;23.328;2023-03-08T05:49:14;13.53;;;12.43;;
6197;SDS011;3132;42.622;23.328;2023-03-08T05:51:39;15.07;;;13.40;;
6197;SDS011;3132;42.622;23.328;2023-03-08T05:54:04;13.73;;;12.33;;
6197;SDS011;3132;42.622;23.328;2023-03-08T05:56:30;13.97;;;12.67;;
6197;SDS011;3132;42.622;23.328;2023-03-08T05:58:55;14.60;;;13.40;;
6197;SDS011;3132;42.622;23.328;2023-03-08T06:01:22;14.70;;;13.43;;
6197;SDS011;3132;42.622;23.328;2023-03-08T06:03:53;17.53;;;14.97;;
6197;SDS011;3132;42.622;23.328;2023-03-08T06:06:20;17.47;;;13.73;;
6197;SDS011;3132;42.622;23.328;2023-03-08T06:08:47;16.67;;;14.93;;
6197;SDS011;3132;42.622;23.328;2023-03-08T06:11:13;21.03;;;15.27;;
6197;SDS011;3132;42.622;23.328;2023-03-08T06:13:39;21.70;;;14.97;;
6197;SDS011;3132;42.622;23.328;2023-03-08T06:16:04;17.00;;;15.27;;
6197;SDS011;3132;42.622;23.328;2023-03-08T06:18:31;17.37;;;14.43;;
6197;SDS011;3132;42.622;23.328;2023-03-08T06:21:16;17.33;;;15.43;;
6197;SDS011;3132;42.622;23.328;2023-03-08T06:23:43;16.13;;;14.43;;
6197;SDS011;3132;42.622;23.328;2023-03-08T06:26:09;17.53;;;15.60;;
6197;SDS011;3132;42.622;23.328;2023-03-08T06:28:36;18.33;;;14.67;;
6197;SDS011;3132;42.622;23.328;2023-03-08T06:31:02;16.47;;;14.73;;
6197;SDS011;3132;42.622;23.328;2023-03-08T06:33:29;19.10;;;14.27;;
6197;SDS011;3132;42.622;23.328;2023-03-08T06:36:00;15.97;;;13.87;;
6197;SDS011;3132;42.622;23.328;2023-03-08T06:38:31;15.13;;;13.67;;
6197;SDS011;3132;42.622;23.328;2023-03-08T06:40:59;14.67;;;12.87;;
6197;SDS011;3132;42.622;23.328;2023-03-08T06:43:25;16.30;;;14.00;;
6197;SDS011;3132;42.622;23.328;2023-03-08T06:45:50;14.30;;;12.83;;
6197;SDS011;3132;42.622;23.328;2023-03-08T06:48:16;15.47;;;13.97;;
6197;SDS011;3132;42.622;23.328;2023-03-08T06:50:42;16.27;;;14.63;;
6197;SDS011;3132;42.622;23.328;2023-03-08T06:53:07;13.70;;;12.37;;
6197;SDS011;3132;42.622;23.328;2023-03-08T06:55:34;14.30;;;12.90;;
6197;SDS011;3132;42.622;23.328;2023-03-08T06:58:00;13.70;;;12.30;;
6197;SDS011;3132;42.622;23.328;2023-03-08T07:00:26;13.63;;;12.63;;
6197;SDS011;3132;42.622;23.328;2023-03-08T07:02:51;13.73;;;12.57;;
6197;SDS011;3132;42.622;23.328;2023-03-08T07:05:17;13.80;;;12.60;;
6197;SDS011;3132;42.622;23.328;2023-03-08T07:07:43;12.87;;;11.70;;
6197;SDS011;3132;42.622;23.328;2023-03-08T07:10:09;14.10;;;12.80;;
6197;SDS011;3132;42.622;23.328;2023-03-08T07:12:36;12.83;;;11.73;;
6197;SDS011;3132;42.622;23.328;2023-03-08T07:15:05;11.93;;;11.07;;
6197;SDS011;3132;42.622;23.328;2023-03-08T07:17:31;11.27;;;10.47;;
6197;SDS011;3132;42.622;23.328;2023-03-08T07:19:58;12.00;;;11.20;;
6197;SDS011;3132;42.622;23.328;2023-03-08T07:22:24;11.30;;;10.33;;
6197;SDS011;3132;42.622;23.328;2023-03-08T07:24:49;12.20;;;11.13;;
6197;SDS011;3132;42.622;23.328;2023-03-08T07:27:15;12.90;;;11.70;;
6197;SDS011;3132;42.622;23.328;2023-03-08T07:29:40;13.07;;;11.80;;
6197;SDS011;3132;42.622;23.328;2023-03-08T07:32:06;10.93;;;10.03;;
6197;SDS011;3132;42.622;23.328;2023-03-08T07:34:31;12.27;;;11.27;;
6197;SDS011;3132;42.622;23.328;2023-03-08T07:36:56;11.60;;;10.50;;
6197;SDS011;3132;42.622;23.328;2023-03-08T07:39:22;11.60;;;10.60;;
6197;SDS011;3132;42.622;23.328;2023-03-08T07:41:47;12.53;;;11.37;;
6197;SDS011;3132;42.622;23.328;2023-03-08T07:44:14;10.47;;;9.77;;
6197;SDS011;3132;42.622;23.328;2023-03-08T07:46:39;12.40;;;11.20;;
6197;SDS011;3132;42.622;23.328;2023-03-08T07:49:04;11.73;;;10.97;;
6197;SDS011;3132;42.622;23.328;2023-03-08T07:51:34;12.70;;;10.97;;
6197;SDS011;3132;42.622;23.328;2023-03-08T07:54:00;11.93;;;11.13;;
6197;SDS011;3132;42.622;23.328;2023-03-08T07:56:26;11.00;;;10.10;;
6197;SDS011;3132;42.622;23.328;2023-03-08T07:58:51;11.10;;;10.30;;
6197;SDS011;3132;42.622;23.328;2023-03-08T08:01:16;11.53;;;10.53;;
6197;SDS011;3132;42.622;23.328;2023-03-08T08:03:42;11.90;;;10.90;;
6197;SDS011;3132;42.622;23.328;2023-03-08T08:06:08;12.40;;;11.23;;
6197;SDS011;3132;42.622;23.328;2023-03-08T08:08:33;11.37;;;10.67;;
6197;SDS011;3132;42.622;23.328;2023-03-08T08:10:59;11.27;;;10.33;;
6197;SDS011;3132;42.622;23.328;2023-03-08T08:13:28;11.77;;;10.83;;
6197;SDS011;3132;42.622;23.328;2023-03-08T08:16:00;11.27;;;10.57;;
6197;SDS011;3132;42.622;23.328;2023-03-08T08:18:26;11.77;;;10.90;;
6197;SDS011;3132;42.622;23.328;2023-03-08T08:20:59;11.53;;;10.73;;
6197;SDS011;3132;42.622;23.328;2023-03-08T08:23:32;11.07;;;10.20;;
6197;SDS011;3132;42.622;23.328;2023-03-08T08:25:58;11.20;;;10.27;;
6197;SDS011;3132;42.622;23.328;2023-03-08T08:28:24;12.17;;;10.97;;
6197;SDS011;3132;42.622;23.328;2023-03-08T08:30:54;10.67;;;9.97;;
6197;SDS011;3132;42.622;23.328;2023-03-08T08:33:30;11.67;;;10.67;;
6197;SDS011;3132;42.622;23.328;2023-03-08T08:35:56;12.03;;;11.03;;
6197;SDS011;3132;42.622;23.328;2023-03-08T08:38:22;11.87;;;11.07;;
6197;SDS011;3132;42.622;23.328;2023-03-08T08:40:48;11.60;;;10.60;;
6197;SDS011;3132;42.622;23.328;2023-03-08T08:43:14;11.53;;;10.63;;
6197;SDS011;3132;42.622;23.328;2023-03-08T08:45:43;12.17;;;11.30;;
6197;SDS011;3132;42.622;23.328;2023-03-08T08:48:09;11.63;;;10.83;;
6197;SDS011;3132;42.622;23.328;2023-03-08T08:50:38;12.70;;;11.53;;
6197;SDS011;3132;42.622;23.328;2023-03-08T08:53:05;11.33;;;10.63;;
6197;SDS011;3132;42.622;23.328;2023-03-08T08:55:31;11.10;;;10.00;;
6197;SDS011;3132;42.622;23.328;2023-03-08T08:57:56;11.27;;;10.43;;
6197;SDS011;3132;42.622;23.328;2023-03-08T09:00:22;11.23;;;10.47;;
6197;SDS011;3132;42.622;23.328;2023-03-08T09:02:47;12.43;;;11.17;;
6197;SDS011;3132;42.622;23.328;2023-03-08T09:05:13;10.97;;;10.07;;
6197;SDS011;3132;42.622;23.328;2023-03-08T09:07:39;13.30;;;10.50;;
6197;SDS011;3132;42.622;23.328;2023-03-08T09:10:04;11.83;;;10.70;;
6197;SDS011;3132;42.622;23.328;2023-03-08T09:12:30;12.97;;;11.60;;
6197;SDS011;3132;42.622;23.328;2023-03-08T09:14:55;10.93;;;10.07;;
6197;SDS011;3132;42.622;23.328;2023-03-08T09:17:21;11.70;;;10.87;;
6197;SDS011;3132;42.622;23.328;2023-03-08T09:19:46;11.90;;;10.93;;
6197;SDS011;3132;42.622;23.328;2023-03-08T09:22:12;11.27;;;10.30;;
6197;SDS011;3132;42.622;23.328;2023-03-08T09:24:37;12.97;;;10.57;;
6197;SDS011;3132;42.622;23.328;2023-03-08T09:27:03;12.77;;;11.47;;
6197;SDS011;3132;42.622;23.328;2023-03-08T09:29:29;12.00;;;10.87;;
6197;SDS011;3132;42.622;23.328;2023-03-08T09:31:55;13.50;;;12.10;;
6197;SDS011;3132;42.622;23.328;2023-03-08T09:34:20;15.47;;;11.43;;
6197;SDS011;3132;42.622;23.328;2023-03-08T09:36:46;13.03;;;11.67;;
6197;SDS011;3132;42.622;23.328;2023-03-08T09:39:11;12.90;;;11.90;;
6197;SDS011;3132;42.622;23.328;2023-03-08T09:50:41;10.47;;;9.57;;
6197;SDS011;3132;42.622;23.328;2023-03-08T09:53:20;12.83;;;11.53;;
6197;SDS011;3132;42.622;23.328;2023-03-08T09:55:54;12.23;;;10.83;;
6197;SDS011;3132;42.622;23.328;2023-03-08T09:58:36;12.70;;;11.40;;
6197;SDS011;3132;42.622;23.328;2023-03-08T10:09:52;12.57;;;11.40;;
6197;SDS011;3132;42.622;23.328;2023-03-08T10:12:58;11.10;;;10.03;;
6197;SDS011;3132;42.622;23.328;2023-03-08T10:15:32;12.90;;;11.60;;
6197;SDS011;3132;42.622;23.328;2023-03-08T10:20:48;11.67;;;10.60;;
6197;SDS011;3132;42.622;23.328;2023-03-08T10:23:15;11.87;;;11.10;;
6197;SDS011;3132;42.622;23.328;2023-03-08T10:25:41;12.73;;;11.17;;
6197;SDS011;3132;42.622;23.328;2023-03-08T10:28:12;12.70;;;11.60;;
6197;SDS011;3132;42.622;23.328;2023-03-08T10:30:49;12.23;;;11.17;;
6197;SDS011;3132;42.622;23.328;2023-03-08T10:33:16;12.57;;;11.33;;
6197;SDS011;3132;42.622;23.328;2023-03-08T10:35:53;11.90;;;10.90;;
6197;SDS011;3132;42.622;23.328;2023-03-08T10:38:19;12.40;;;11.27;;
6197;SDS011;3132;42.622;23.328;2023-03-08T10:40:45;11.87;;;10.80;;
6197;SDS011;3132;42.622;23.328;2023-03-08T10:43:17;14.63;;;10.97;;
6197;SDS011;3132;42.622;23.328;2023-03-08T10:46:04;12.90;;;11.30;;
6197;SDS011;3132;42.622;23.328;2023-03-08T10:48:35;12.17;;;11.07;;
6197;SDS011;3132;42.622;23.328;2023-03-08T10:51:01;12.43;;;10.97;;
6197;SDS011;3132;42.622;23.328;2023-03-08T10:53:29;12.40;;;11.30;;
6197;SDS011;3132;42.622;23.328;2023-03-08T10:55:57;13.27;;;12.07;;
6197;SDS011;3132;42.622;23.328;2023-03-08T10:58:31;13.57;;;12.47;;
6197;SDS011;3132;42.622;23.328;2023-03-08T11:01:03;12.43;;;11.23;;
6197;SDS011;3132;42.622;23.328;2023-03-08T11:03:30;14.80;;;12.70;;
6197;SDS011;3132;42.622;23.328;2023-03-08T11:05:58;14.03;;;12.60;;
6197;SDS011;3132;42.622;23.328;2023-03-08T11:08:25;13.90;;;12.60;;
6197;SDS011;3132;42.622;23.328;2023-03-08T11:10:59;14.73;;;12.27;;
6197;SDS011;3132;42.622;23.328;2023-03-08T11:13:29;13.20;;;12.10;;
6197;SDS011;3132;42.622;23.328;2023-03-08T11:29:55;12.07;;;10.93;;
6197;SDS011;3132;42.622;23.328;2023-03-08T11:38:26;12.60;;;11.40;;
6197;SDS011;3132;42.622;23.328;2023-03-08T11:43:43;12.50;;;11.47;;
6197;SDS011;3132;42.622;23.328;2023-03-08T11:57:55;10.90;;;10.10;;
6197;SDS011;3132;42.622;23.328;2023-03-08T12:00:28;11.93;;;10.93;;
6197;SDS011;3132;42.622;23.328;2023-03-08T12:03:04;10.50;;;9.50;;
6197;SDS011;3132;42.622;23.328;2023-03-08T12:05:41;10.77;;;9.97;;
6197;SDS011;3132;42.622;23.328;2023-03-08T12:10:50;11.17;;;10.10;;
6197;SDS011;3132;42.622;23.328;2023-03-08T12:13:29;9.77;;;9.13;;
6197;SDS011;3132;42.622;23.328;2023-03-08T12:18:28;10.37;;;9.60;;
6197;SDS011;3132;42.622;23.328;2023-03-08T12:21:08;10.50;;;9.63;;
6197;SDS011;3132;42.622;23.328;2023-03-08T12:26:43;9.53;;;8.93;;
6197;SDS011;3132;42.622;23.328;2023-03-08T12:29:17;10.67;;;9.80;;
6197;SDS011;3132;42.622;23.328;2023-03-08T12:31:50;9.90;;;9.20;;
6197;SDS011;3132;42.622;23.328;2023-03-08T12:34:59;10.07;;;9.47;;
6197;SDS011;3132;42.622;23.328;2023-03-08T12:37:23;10.37;;;9.70;;
6197;SDS011;3132;42.622;23.328;2023-03-08T12:40:04;8.60;;;8.10;;
6197;SDS011;3132;42.622;23.328;2023-03-08T12:42:37;8.97;;;8.37;;
6197;SDS011;3132;42.622;23.328;2023-03-08T12:47:55;9.83;;;9.10;;
6197;SDS011;3132;42.622;23.328;2023-03-08T12:50:30;8.90;;;8.40;;
6197;SDS011;3132;42.622;23.328;2023-03-08T12:53:00;8.73;;;8.13;;
6197;SDS011;3132;42.622;23.328;2023-03-08T12:55:27;9.20;;;8.43;;
6197;SDS011;3132;42.622;23.328;2023-03-08T12:57:56;8.83;;;8.03;;
6197;SDS011;3132;42.622;23.328;2023-03-08T13:00:25;8.97;;;8.47;;
6197;SDS011;3132;42.622;23.328;2023-03-08T13:03:04;8.63;;;8.13;;
6197;SDS011;3132;42.622;23.328;2023-03-08T13:05:39;8.43;;;8.03;;
6197;SDS011;3132;42.622;23.328;2023-03-08T13:10:38;7.83;;;7.43;;
6197;SDS011;3132;42.622;23.328;2023-03-08T13:18:39;8.37;;;7.97;;
6197;SDS011;3132;42.622;23.328;2023-03-08T13:21:12;8.60;;;8.20;;
6197;SDS011;3132;42.622;23.328;2023-03-08T13:23:49;8.47;;;8.07;;
6197;SDS011;3132;42.622;23.328;2023-03-08T13:26:37;9.70;;;8.73;;
6197;SDS011;3132;42.622;23.328;2023-03-08T13:29:29;8.37;;;7.97;;
6197;SDS011;3132;42.622;23.328;2023-03-08T13:31:56;7.73;;;7.43;;
6197;SDS011;3132;42.622;23.328;2023-03-08T13:34:26;9.43;;;8.80;;
6197;SDS011;3132;42.622;23.328;2023-03-08T13:36:53;7.87;;;7.47;;
6197;SDS011;3132;42.622;23.328;2023-03-08T13:39:21;8.60;;;8.23;;
6197;SDS011;3132;42.622;23.328;2023-03-08T13:41:48;8.33;;;7.97;;
6197;SDS011;3132;42.622;23.328;2023-03-08T13:44:26;8.77;;;8.07;;
6197;SDS011;3132;42.622;23.328;2023-03-08T13:47:00;8.07;;;7.63;;
6197;SDS011;3132;42.622;23.328;2023-03-08T13:49:29;8.27;;;7.93;;
6197;SDS011;3132;42.622;23.328;2023-03-08T13:52:00;10.23;;;9.63;;
6197;SDS011;3132;42.622;23.328;2023-03-08T13:54:31;8.23;;;7.70;;
6197;SDS011;3132;42.622;23.328;2023-03-08T13:56:59;8.17;;;7.87;;
6197;SDS011;3132;42.622;23.328;2023-03-08T13:59:30;8.97;;;8.57;;
6197;SDS011;3132;42.622;23.328;2023-03-08T14:01:57;9.17;;;8.67;;
6197;SDS011;3132;42.622;23.328;2023-03-08T14:04:26;9.50;;;8.93;;
6197;SDS011;3132;42.622;23.328;2023-03-08T14:06:57;9.00;;;8.33;;
6197;SDS011;3132;42.622;23.328;2023-03-08T14:09:24;9.70;;;9.10;;
6197;SDS011;3132;42.622;23.328;2023-03-08T14:12:11;10.77;;;9.97;;
6197;SDS011;3132;42.622;23.328;2023-03-08T14:14:43;8.70;;;8.30;;
6197;SDS011;3132;42.622;23.328;2023-03-08T14:17:32;7.47;;;7.07;;
6197;SDS011;3132;42.622;23.328;2023-03-08T14:19:59;8.87;;;8.40;;
6197;SDS011;3132;42.622;23.328;2023-03-08T14:22:40;8.73;;;8.20;;
6197;SDS011;3132;42.622;23.328;2023-03-08T14:25:54;7.80;;;7.40;;
6197;SDS011;3132;42.622;23.328;2023-03-08T14:28:04;8.00;;;7.57;;
6197;SDS011;3132;42.622;23.328;2023-03-08T14:30:30;8.57;;;8.07;;
6197;SDS011;3132;42.622;23.328;2023-03-08T14:35:23;8.53;;;8.23;;
6197;SDS011;3132;42.622;23.328;2023-03-08T14:37:50;8.40;;;8.00;;
6197;SDS011;3132;42.622;23.328;2023-03-08T14:40:27;8.33;;;7.90;;
6197;SDS011;3132;42.622;23.328;2023-03-08T14:43:14;9.30;;;8.63;;
6197;SDS011;3132;42.622;23.328;2023-03-08T14:46:16;7.67;;;7.37;;
6197;SDS011;3132;42.622;23.328;2023-03-08T14:48:41;8.70;;;8.30;;
6197;SDS011;3132;42.622;23.328;2023-03-08T14:51:24;8.67;;;8.27;;
6197;SDS011;3132;42.622;23.328;2023-03-08T14:53:58;10.47;;;9.53;;
6197;SDS011;3132;42.622;23.328;2023-03-08T14:56:26;9.47;;;8.97;;
6197;SDS011;3132;42.622;23.328;2023-03-08T14:58:54;9.50;;;8.80;;
6197;SDS011;3132;42.622;23.328;2023-03-08T15:01:33;8.77;;;8.37;;
6197;SDS011;3132;42.622;23.328;2023-03-08T15:04:00;9.30;;;8.90;;
6197;SDS011;3132;42.622;23.328;2023-03-08T15:06:27;9.07;;;8.67;;
6197;SDS011;3132;42.622;23.328;2023-03-08T15:08:55;9.07;;;8.67;;
6197;SDS011;3132;42.622;23.328;2023-03-08T15:11:22;10.10;;;9.27;;
6197;SDS011;3132;42.622;23.328;2023-03-08T15:13:48;9.87;;;9.20;;
6197;SDS011;3132;42.622;23.328;2023-03-08T15:16:14;10.23;;;9.63;;
6197;SDS011;3132;42.622;23.328;2023-03-08T15:18:39;9.03;;;8.60;;
6197;SDS011;3132;42.622;23.328;2023-03-08T15:21:05;8.77;;;8.40;;
6197;SDS011;3132;42.622;23.328;2023-03-08T15:23:31;9.00;;;8.60;;
6197;SDS011;3132;42.622;23.328;2023-03-08T15:25:59;8.77;;;8.37;;
6197;SDS011;3132;42.622;23.328;2023-03-08T15:28:25;8.83;;;8.43;;
6197;SDS011;3132;42.622;23.328;2023-03-08T15:30:51;8.73;;;8.27;;
6197;SDS011;3132;42.622;23.328;2023-03-08T15:33:18;9.00;;;8.63;;
6197;SDS011;3132;42.622;23.328;2023-03-08T15:35:44;9.60;;;9.20;;
6197;SDS011;3132;42.622;23.328;2023-03-08T15:38:15;8.87;;;8.47;;
6197;SDS011;3132;42.622;23.328;2023-03-08T15:40:41;9.77;;;9.17;;
6197;SDS011;3132;42.622;23.328;2023-03-08T15:43:07;8.50;;;8.10;;
6197;SDS011;3132;42.622;23.328;2023-03-08T15:45:33;8.73;;;8.43;;
6197;SDS011;3132;42.622;23.328;2023-03-08T15:48:02;8.73;;;8.23;;
6197;SDS011;3132;42.622;23.328;2023-03-08T15:50:35;9.17;;;8.67;;
6197;SDS011;3132;42.622;23.328;2023-03-08T15:53:00;8.90;;;8.40;;
6197;SDS011;3132;42.622;23.328;2023-03-08T15:55:28;9.83;;;9.13;;
6197;SDS011;3132;42.622;23.328;2023-03-08T15:57:54;9.27;;;8.87;;
6197;SDS011;3132;42.622;23.328;2023-03-08T16:00:20;9.00;;;8.40;;
6197;SDS011;3132;42.622;23.328;2023-03-08T16:02:47;9.30;;;8.77;;
6197;SDS011;3132;42.622;23.328;2023-03-08T16:05:13;8.60;;;8.20;;
6197;SDS011;3132;42.622;23.328;2023-03-08T16:07:39;8.77;;;8.33;;
6197;SDS011;3132;42.622;23.328;2023-03-08T16:10:05;8.90;;;8.50;;